PGT54SM LTFJ-LTBJ
Flight info
| Callsign | PGT54SM |
|---|---|
| Flight time | 0h 43m |
| Altitude | 26000 |
| Route | IVGUS1J/06L IVGUS M19 OVZOK |
| Aircraft | A20N/M-SDE2E3FGHIRWXY/LB1 |
Departure
| Time | 2026-04-30 10:29 |
|---|---|
| Airport | Istanbul Sabiha Gökçen International Airport (LTFJ) |
Arrival
| Time | 2026-04-30 11:12 |
|---|---|
| Airport | Adnan Menderes International Airport (LTBJ) |
| Time | Latitude | Longitude | Altitude | Speed | Heading |
|---|---|---|---|---|---|
| 2026-04-30 09:56 | 40.90395 | 29.31545 | 320 ft | 0 kts | 154° |
| 2026-04-30 10:00 | 40.90395 | 29.31546 | 320 ft | 0 kts | 154° |
| 2026-04-30 10:03 | 40.90395 | 29.31545 | 320 ft | 0 kts | 154° |
| 2026-04-30 10:15 | 40.90406 | 29.31538 | 320 ft | 2 kts | 154° |
| 2026-04-30 10:15 | 40.90421 | 29.31529 | 320 ft | 2 kts | 154° |
| 2026-04-30 10:16 | 40.90436 | 29.31519 | 318 ft | 2 kts | 154° |
| 2026-04-30 10:16 | 40.90450 | 29.31509 | 319 ft | 2 kts | 155° |
| 2026-04-30 10:16 | 40.90466 | 29.31503 | 320 ft | 2 kts | 205° |
| 2026-04-30 10:17 | 40.90481 | 29.31530 | 319 ft | 0 kts | 244° |
| 2026-04-30 10:23 | 40.90478 | 29.31521 | 320 ft | 3 kts | 244° |
| 2026-04-30 10:23 | 40.90461 | 29.31476 | 320 ft | 8 kts | 244° |
| 2026-04-30 10:23 | 40.90416 | 29.31435 | 320 ft | 10 kts | 161° |
| 2026-04-30 10:24 | 40.90315 | 29.31500 | 320 ft | 18 kts | 155° |
| 2026-04-30 10:24 | 40.90251 | 29.31429 | 320 ft | 15 kts | 244° |
| 2026-04-30 10:24 | 40.90201 | 29.31289 | 320 ft | 18 kts | 244° |
| 2026-04-30 10:24 | 40.90138 | 29.31120 | 319 ft | 23 kts | 244° |
| 2026-04-30 10:25 | 40.90068 | 29.30929 | 320 ft | 24 kts | 244° |
| 2026-04-30 10:25 | 40.89999 | 29.30740 | 321 ft | 24 kts | 244° |
| 2026-04-30 10:25 | 40.89925 | 29.30541 | 321 ft | 25 kts | 244° |
| 2026-04-30 10:25 | 40.89849 | 29.30333 | 321 ft | 22 kts | 244° |
| 2026-04-30 10:26 | 40.89776 | 29.30137 | 320 ft | 25 kts | 244° |
| 2026-04-30 10:26 | 40.89695 | 29.29916 | 320 ft | 28 kts | 243° |
| 2026-04-30 10:26 | 40.89607 | 29.29677 | 320 ft | 28 kts | 244° |
| 2026-04-30 10:26 | 40.89522 | 29.29442 | 318 ft | 27 kts | 244° |
| 2026-04-30 10:27 | 40.89430 | 29.29256 | 320 ft | 13 kts | 190° |
| 2026-04-30 10:27 | 40.89353 | 29.29280 | 318 ft | 0 kts | 154° |
| 2026-04-30 10:27 | 40.89320 | 29.29302 | 317 ft | 13 kts | 154° |
| 2026-04-30 10:28 | 40.89277 | 29.29360 | 316 ft | 8 kts | 84° |
| 2026-04-30 10:28 | 40.89309 | 29.29440 | 317 ft | 17 kts | 64° |
| 2026-04-30 10:28 | 40.89466 | 29.29863 | 321 ft | 85 kts | 64° |
| 2026-04-30 10:28 | 40.89808 | 29.30800 | 326 ft | 138 kts | 63° |
| 2026-04-30 10:29 | 40.90218 | 29.31946 | 906 ft | 134 kts | 62° |
| 2026-04-30 10:29 | 40.90627 | 29.33043 | 1564 ft | 132 kts | 61° |
| 2026-04-30 10:29 | 40.91031 | 29.34138 | 2091 ft | 132 kts | 62° |
| 2026-04-30 10:29 | 40.91453 | 29.35296 | 2303 ft | 152 kts | 62° |
| 2026-04-30 10:30 | 40.91954 | 29.36637 | 2737 ft | 172 kts | 63° |
| 2026-04-30 10:30 | 40.92516 | 29.38136 | 3169 ft | 198 kts | 64° |
| 2026-04-30 10:30 | 40.92971 | 29.39998 | 3657 ft | 225 kts | 87° |
| 2026-04-30 10:30 | 40.92720 | 29.42124 | 4284 ft | 247 kts | 115° |
| 2026-04-30 10:31 | 40.91641 | 29.43941 | 5084 ft | 259 kts | 145° |
| 2026-04-30 10:31 | 40.89980 | 29.44896 | 5918 ft | 267 kts | 174° |
| 2026-04-30 10:31 | 40.88144 | 29.44696 | 6925 ft | 266 kts | 202° |
| 2026-04-30 10:31 | 40.86586 | 29.43422 | 7970 ft | 265 kts | 225° |
| 2026-04-30 10:32 | 40.85371 | 29.41590 | 9055 ft | 266 kts | 235° |
| 2026-04-30 10:32 | 40.84296 | 29.39610 | 10099 ft | 270 kts | 237° |
| 2026-04-30 10:32 | 40.83193 | 29.37513 | 10760 ft | 289 kts | 237° |
| 2026-04-30 10:32 | 40.81974 | 29.35260 | 11167 ft | 313 kts | 236° |
| 2026-04-30 10:33 | 40.80645 | 29.32890 | 11849 ft | 324 kts | 235° |
| 2026-04-30 10:33 | 40.79275 | 29.30499 | 12805 ft | 328 kts | 234° |
| 2026-04-30 10:33 | 40.77880 | 29.28085 | 13749 ft | 332 kts | 234° |
| 2026-04-30 10:33 | 40.76468 | 29.25650 | 14597 ft | 336 kts | 234° |
| 2026-04-30 10:34 | 40.75038 | 29.23187 | 15540 ft | 337 kts | 235° |
| 2026-04-30 10:34 | 40.73610 | 29.20728 | 16399 ft | 340 kts | 235° |
| 2026-04-30 10:34 | 40.72159 | 29.18225 | 17095 ft | 346 kts | 235° |
| 2026-04-30 10:34 | 40.70690 | 29.15692 | 17942 ft | 349 kts | 235° |
| 2026-04-30 10:35 | 40.69224 | 29.13169 | 18703 ft | 352 kts | 235° |
| 2026-04-30 10:35 | 40.67728 | 29.10595 | 19403 ft | 355 kts | 235° |
| 2026-04-30 10:35 | 40.66218 | 29.07999 | 20084 ft | 359 kts | 235° |
| 2026-04-30 10:35 | 40.64691 | 29.05376 | 20774 ft | 362 kts | 235° |
| 2026-04-30 10:36 | 40.63154 | 29.02737 | 21448 ft | 366 kts | 235° |
| 2026-04-30 10:36 | 40.61593 | 29.00060 | 22156 ft | 369 kts | 235° |
| 2026-04-30 10:36 | 40.60025 | 28.97376 | 22821 ft | 372 kts | 235° |
| 2026-04-30 10:36 | 40.58426 | 28.94641 | 23377 ft | 378 kts | 235° |
| 2026-04-30 10:37 | 40.56836 | 28.91920 | 23954 ft | 382 kts | 235° |
| 2026-04-30 10:37 | 40.55213 | 28.89144 | 24533 ft | 385 kts | 235° |
| 2026-04-30 10:37 | 40.53557 | 28.86312 | 24735 ft | 397 kts | 235° |
| 2026-04-30 10:37 | 40.51858 | 28.83411 | 25216 ft | 401 kts | 235° |
| 2026-04-30 10:38 | 40.50152 | 28.80504 | 25755 ft | 403 kts | 235° |
| 2026-04-30 10:38 | 40.48435 | 28.77581 | 26024 ft | 405 kts | 235° |
| 2026-04-30 10:38 | 40.46706 | 28.74640 | 26089 ft | 407 kts | 235° |
| 2026-04-30 10:38 | 40.44998 | 28.71736 | 26105 ft | 408 kts | 235° |
| 2026-04-30 10:39 | 40.43261 | 28.68788 | 26105 ft | 407 kts | 235° |
| 2026-04-30 10:39 | 40.41527 | 28.65846 | 26116 ft | 407 kts | 235° |
| 2026-04-30 10:39 | 40.39790 | 28.62902 | 26105 ft | 407 kts | 235° |
| 2026-04-30 10:39 | 40.38055 | 28.59964 | 26105 ft | 407 kts | 235° |
| 2026-04-30 10:40 | 40.36322 | 28.57032 | 26105 ft | 407 kts | 235° |
| 2026-04-30 10:40 | 40.34587 | 28.54099 | 26108 ft | 407 kts | 235° |
| 2026-04-30 10:40 | 40.32850 | 28.51165 | 26105 ft | 408 kts | 235° |
| 2026-04-30 10:40 | 40.31103 | 28.48216 | 26106 ft | 410 kts | 235° |
| 2026-04-30 10:41 | 40.29363 | 28.45282 | 26103 ft | 415 kts | 235° |
| 2026-04-30 10:41 | 40.27589 | 28.42295 | 26104 ft | 415 kts | 235° |
| 2026-04-30 10:41 | 40.25813 | 28.39309 | 26103 ft | 415 kts | 235° |
| 2026-04-30 10:41 | 40.24036 | 28.36322 | 26110 ft | 415 kts | 235° |
| 2026-04-30 10:42 | 40.22261 | 28.33343 | 26102 ft | 415 kts | 235° |
| 2026-04-30 10:42 | 40.20483 | 28.30360 | 26082 ft | 415 kts | 235° |
| 2026-04-30 10:42 | 40.18704 | 28.27378 | 26097 ft | 416 kts | 234° |
| 2026-04-30 10:42 | 40.16919 | 28.24389 | 26100 ft | 416 kts | 234° |
| 2026-04-30 10:43 | 40.15134 | 28.21403 | 26098 ft | 416 kts | 234° |
| 2026-04-30 10:43 | 40.13347 | 28.18417 | 26099 ft | 416 kts | 234° |
| 2026-04-30 10:43 | 40.11569 | 28.15448 | 26100 ft | 416 kts | 234° |
| 2026-04-30 10:43 | 40.09775 | 28.12456 | 26096 ft | 416 kts | 234° |
| 2026-04-30 10:44 | 40.08012 | 28.09519 | 26094 ft | 416 kts | 234° |
| 2026-04-30 10:44 | 40.06221 | 28.06537 | 26093 ft | 417 kts | 234° |
| 2026-04-30 10:44 | 40.04426 | 28.03550 | 26098 ft | 418 kts | 234° |
| 2026-04-30 10:44 | 40.02632 | 28.00568 | 26094 ft | 418 kts | 234° |
| 2026-04-30 10:45 | 40.00834 | 27.97584 | 26095 ft | 418 kts | 234° |
| 2026-04-30 10:45 | 39.99039 | 27.94608 | 26093 ft | 418 kts | 234° |
| 2026-04-30 10:45 | 39.97241 | 27.91629 | 26089 ft | 418 kts | 234° |
| 2026-04-30 10:45 | 39.95440 | 27.88648 | 26088 ft | 424 kts | 234° |
| 2026-04-30 10:46 | 39.93599 | 27.85600 | 26087 ft | 428 kts | 234° |
| 2026-04-30 10:46 | 39.91753 | 27.82549 | 26074 ft | 429 kts | 234° |
| 2026-04-30 10:46 | 39.89924 | 27.79531 | 26084 ft | 430 kts | 234° |
| 2026-04-30 10:46 | 39.88071 | 27.76476 | 26084 ft | 429 kts | 234° |
| 2026-04-30 10:47 | 39.86217 | 27.73423 | 26081 ft | 429 kts | 234° |
| 2026-04-30 10:47 | 39.84361 | 27.70368 | 26077 ft | 430 kts | 234° |
| 2026-04-30 10:47 | 39.82505 | 27.67317 | 26079 ft | 430 kts | 234° |
| 2026-04-30 10:47 | 39.80647 | 27.64264 | 26072 ft | 430 kts | 234° |
| 2026-04-30 10:48 | 39.78789 | 27.61214 | 26062 ft | 430 kts | 234° |
| 2026-04-30 10:48 | 39.77553 | 27.59187 | 26073 ft | 431 kts | 234° |
| 2026-04-30 10:48 | 39.75687 | 27.56129 | 26073 ft | 431 kts | 234° |
| 2026-04-30 10:48 | 39.73791 | 27.53110 | 26076 ft | 432 kts | 230° |
| 2026-04-30 10:49 | 39.71532 | 27.50500 | 26078 ft | 437 kts | 219° |
| 2026-04-30 10:49 | 39.68890 | 27.48513 | 26061 ft | 442 kts | 207° |
| 2026-04-30 10:49 | 39.65962 | 27.47253 | 26075 ft | 448 kts | 196° |
| 2026-04-30 10:49 | 39.62868 | 27.46626 | 26060 ft | 451 kts | 192° |
| 2026-04-30 10:50 | 39.59755 | 27.46052 | 26061 ft | 452 kts | 192° |
| 2026-04-30 10:50 | 39.56683 | 27.45482 | 26059 ft | 452 kts | 192° |
| 2026-04-30 10:50 | 39.53566 | 27.44900 | 26059 ft | 452 kts | 192° |
| 2026-04-30 10:50 | 39.50457 | 27.44319 | 26057 ft | 452 kts | 192° |
| 2026-04-30 10:51 | 39.47338 | 27.43735 | 26059 ft | 452 kts | 192° |
| 2026-04-30 10:51 | 39.44224 | 27.43153 | 26056 ft | 452 kts | 192° |
| 2026-04-30 10:51 | 39.41107 | 27.42571 | 26057 ft | 452 kts | 192° |
| 2026-04-30 10:51 | 39.37993 | 27.41951 | 26049 ft | 451 kts | 195° |
| 2026-04-30 10:52 | 39.34963 | 27.40979 | 26046 ft | 448 kts | 200° |
| 2026-04-30 10:52 | 39.31970 | 27.39845 | 26040 ft | 448 kts | 200° |
| 2026-04-30 10:52 | 39.29007 | 27.38726 | 26039 ft | 448 kts | 200° |
| 2026-04-30 10:52 | 39.26012 | 27.37600 | 26038 ft | 448 kts | 200° |
| 2026-04-30 10:53 | 39.23023 | 27.36481 | 26034 ft | 448 kts | 200° |
| 2026-04-30 10:53 | 39.20028 | 27.35361 | 26037 ft | 449 kts | 200° |
| 2026-04-30 10:53 | 39.17027 | 27.34241 | 26002 ft | 447 kts | 200° |
| 2026-04-30 10:53 | 39.14048 | 27.33132 | 25621 ft | 443 kts | 200° |
| 2026-04-30 10:54 | 39.11094 | 27.32032 | 25015 ft | 440 kts | 200° |
| 2026-04-30 10:54 | 39.08164 | 27.30943 | 24442 ft | 434 kts | 200° |
| 2026-04-30 10:54 | 39.05273 | 27.29868 | 23758 ft | 430 kts | 199° |
| 2026-04-30 10:54 | 39.02418 | 27.28806 | 23001 ft | 426 kts | 199° |
| 2026-04-30 10:55 | 38.99580 | 27.27752 | 22264 ft | 421 kts | 200° |
| 2026-04-30 10:55 | 38.96818 | 27.26728 | 21596 ft | 416 kts | 200° |
| 2026-04-30 10:55 | 38.94044 | 27.25688 | 20911 ft | 412 kts | 200° |
| 2026-04-30 10:55 | 38.91305 | 27.24667 | 20205 ft | 408 kts | 200° |
| 2026-04-30 10:56 | 38.88569 | 27.23768 | 19549 ft | 406 kts | 195° |
| 2026-04-30 10:56 | 38.85776 | 27.23308 | 18868 ft | 405 kts | 187° |
| 2026-04-30 10:56 | 38.82957 | 27.23276 | 18203 ft | 404 kts | 183° |
| 2026-04-30 10:56 | 38.80162 | 27.23320 | 17493 ft | 399 kts | 183° |
| 2026-04-30 10:57 | 38.77402 | 27.23354 | 16881 ft | 392 kts | 183° |
| 2026-04-30 10:57 | 38.74697 | 27.23383 | 16324 ft | 386 kts | 182° |
| 2026-04-30 10:57 | 38.72030 | 27.23408 | 15759 ft | 380 kts | 182° |
| 2026-04-30 10:57 | 38.69409 | 27.23408 | 15203 ft | 374 kts | 185° |
| 2026-04-30 10:58 | 38.66848 | 27.23044 | 14652 ft | 366 kts | 193° |
| 2026-04-30 10:58 | 38.64427 | 27.22263 | 14132 ft | 360 kts | 198° |
| 2026-04-30 10:58 | 38.62017 | 27.21389 | 13567 ft | 357 kts | 198° |
| 2026-04-30 10:58 | 38.59641 | 27.20538 | 13038 ft | 352 kts | 197° |
| 2026-04-30 10:59 | 38.57295 | 27.19714 | 12521 ft | 348 kts | 195° |
| 2026-04-30 10:59 | 38.54908 | 27.19303 | 11954 ft | 347 kts | 183° |
| 2026-04-30 10:59 | 38.52507 | 27.19564 | 11473 ft | 344 kts | 171° |
| 2026-04-30 10:59 | 38.50180 | 27.20265 | 10965 ft | 342 kts | 168° |
| 2026-04-30 11:00 | 38.47870 | 27.20973 | 10444 ft | 339 kts | 168° |
| 2026-04-30 11:00 | 38.45618 | 27.21654 | 10107 ft | 331 kts | 168° |
| 2026-04-30 11:00 | 38.43430 | 27.22315 | 10000 ft | 315 kts | 168° |
| 2026-04-30 11:00 | 38.41349 | 27.22942 | 9956 ft | 299 kts | 168° |
| 2026-04-30 11:01 | 38.39366 | 27.23539 | 9824 ft | 286 kts | 168° |
| 2026-04-30 11:01 | 38.37461 | 27.24110 | 9628 ft | 278 kts | 168° |
| 2026-04-30 11:01 | 38.35586 | 27.24671 | 9243 ft | 276 kts | 168° |
| 2026-04-30 11:01 | 38.33728 | 27.25226 | 9027 ft | 273 kts | 168° |
| 2026-04-30 11:02 | 38.31865 | 27.25784 | 8981 ft | 276 kts | 168° |
| 2026-04-30 11:02 | 38.29989 | 27.26345 | 8971 ft | 276 kts | 168° |
| 2026-04-30 11:02 | 38.28121 | 27.26905 | 8814 ft | 274 kts | 168° |
| 2026-04-30 11:02 | 38.26270 | 27.27458 | 8513 ft | 273 kts | 168° |
| 2026-04-30 11:03 | 38.24420 | 27.28012 | 8133 ft | 272 kts | 168° |
| 2026-04-30 11:03 | 38.22578 | 27.28562 | 7756 ft | 272 kts | 168° |
| 2026-04-30 11:03 | 38.20741 | 27.29112 | 7374 ft | 270 kts | 168° |
| 2026-04-30 11:04 | 38.17092 | 27.30203 | 6680 ft | 268 kts | 168° |
| 2026-04-30 11:04 | 38.15349 | 27.30726 | 6535 ft | 253 kts | 168° |
| 2026-04-30 11:04 | 38.13672 | 27.31224 | 6203 ft | 244 kts | 168° |
| 2026-04-30 11:04 | 38.12013 | 27.31714 | 5727 ft | 244 kts | 168° |
| 2026-04-30 11:05 | 38.10360 | 27.32200 | 5241 ft | 243 kts | 170° |
| 2026-04-30 11:05 | 38.08736 | 27.32088 | 5008 ft | 228 kts | 202° |
| 2026-04-30 11:05 | 38.07495 | 27.30979 | 4731 ft | 216 kts | 236° |
| 2026-04-30 11:05 | 38.06956 | 27.29240 | 4531 ft | 215 kts | 261° |
| 2026-04-30 11:06 | 38.06702 | 27.27350 | 4268 ft | 216 kts | 261° |
| 2026-04-30 11:06 | 38.06410 | 27.25485 | 4023 ft | 216 kts | 260° |
| 2026-04-30 11:06 | 38.06444 | 27.23638 | 3880 ft | 205 kts | 292° |
| 2026-04-30 11:06 | 38.07310 | 27.22187 | 3887 ft | 210 kts | 326° |
| 2026-04-30 11:07 | 38.08606 | 27.21560 | 3896 ft | 191 kts | 346° |
| 2026-04-30 11:07 | 38.09891 | 27.21202 | 3883 ft | 190 kts | 348° |
| 2026-04-30 11:07 | 38.11172 | 27.20864 | 3803 ft | 185 kts | 348° |
| 2026-04-30 11:07 | 38.12428 | 27.20520 | 3451 ft | 186 kts | 347° |
| 2026-04-30 11:08 | 38.13672 | 27.20163 | 3086 ft | 185 kts | 347° |
| 2026-04-30 11:08 | 38.14927 | 27.19793 | 2719 ft | 186 kts | 346° |
| 2026-04-30 11:08 | 38.16155 | 27.19426 | 2592 ft | 174 kts | 346° |
| 2026-04-30 11:08 | 38.17307 | 27.19080 | 2422 ft | 167 kts | 346° |
| 2026-04-30 11:09 | 38.18440 | 27.18741 | 2173 ft | 167 kts | 346° |
| 2026-04-30 11:09 | 38.19552 | 27.18406 | 2024 ft | 156 kts | 346° |
| 2026-04-30 11:09 | 38.20524 | 27.18113 | 1983 ft | 131 kts | 346° |
| 2026-04-30 11:09 | 38.21402 | 27.17836 | 1875 ft | 135 kts | 344° |
| 2026-04-30 11:10 | 38.22328 | 27.17542 | 1683 ft | 132 kts | 345° |
| 2026-04-30 11:10 | 38.23218 | 27.17264 | 1468 ft | 131 kts | 346° |
| 2026-04-30 11:10 | 38.24094 | 27.17007 | 1324 ft | 128 kts | 346° |
| 2026-04-30 11:10 | 38.24947 | 27.16756 | 1105 ft | 126 kts | 347° |
| 2026-04-30 11:11 | 38.25791 | 27.16516 | 855 ft | 123 kts | 347° |
| 2026-04-30 11:11 | 38.26611 | 27.16263 | 662 ft | 122 kts | 346° |
| 2026-04-30 11:11 | 38.27445 | 27.16016 | 477 ft | 123 kts | 347° |
| 2026-04-30 11:11 | 38.28268 | 27.15770 | 380 ft | 110 kts | 347° |
| 2026-04-30 11:12 | 38.28826 | 27.15604 | 387 ft | 64 kts | 346° |
| 2026-04-30 11:12 | 38.29038 | 27.15537 | 390 ft | 9 kts | 344° |
| 2026-04-30 11:12 | 38.29044 | 27.15445 | 392 ft | 14 kts | 259° |
| 2026-04-30 11:12 | 38.29020 | 27.15314 | 391 ft | 16 kts | 256° |
| 2026-04-30 11:13 | 38.29002 | 27.15198 | 391 ft | 11 kts | 257° |
| 2026-04-30 11:13 | 38.28997 | 27.15170 | 391 ft | 1 kts | 254° |
| 2026-04-30 11:13 | 38.28991 | 27.15143 | 390 ft | 0 kts | 256° |